createdAt,value
2023-02-03T00:00:48.418Z,31.51
2023-02-03T00:03:14.807Z,31.55
2023-02-03T00:05:41.123Z,31.59
2023-02-03T00:08:07.459Z,31.64
2023-02-03T00:10:33.803Z,31.63
2023-02-03T00:13:00.156Z,31.65
2023-02-03T00:15:26.494Z,31.64
2023-02-03T00:17:52.847Z,31.69
2023-02-03T00:20:19.190Z,31.69
2023-02-03T00:22:45.575Z,31.72
2023-02-03T00:25:11.929Z,31.72
2023-02-03T00:27:38.294Z,31.77
2023-02-03T00:30:04.598Z,31.79
2023-02-03T00:32:31.024Z,31.83
2023-02-03T00:34:57.290Z,31.82
2023-02-03T00:37:23.630Z,31.85
2023-02-03T00:39:50.037Z,31.86
2023-02-03T00:42:16.354Z,31.83
2023-02-03T00:44:42.719Z,31.91
2023-02-03T00:47:09.045Z,31.90
2023-02-03T00:49:35.388Z,31.91
2023-02-03T00:52:01.742Z,31.94
2023-02-03T00:54:28.088Z,31.98
2023-02-03T00:56:54.435Z,32.00
2023-02-03T00:59:20.815Z,32.02
2023-02-03T01:01:47.166Z,32.06
2023-02-03T01:04:13.512Z,32.10
2023-02-03T01:06:39.861Z,32.11
2023-02-03T01:09:06.205Z,32.14
2023-02-03T01:11:32.560Z,32.11
2023-02-03T01:13:58.900Z,32.15
2023-02-03T01:16:27.669Z,32.13
2023-02-03T01:18:51.626Z,32.23
2023-02-03T01:21:17.997Z,32.24
2023-02-03T01:23:44.324Z,32.23
2023-02-03T01:26:11.892Z,32.26
2023-02-03T01:28:37.009Z,32.30
2023-02-03T01:31:03.504Z,32.32
2023-02-03T01:33:29.697Z,32.28
2023-02-03T01:35:56.042Z,32.33
2023-02-03T01:38:22.437Z,32.33
2023-02-03T01:40:48.786Z,32.42
2023-02-03T01:43:15.166Z,32.38
2023-02-03T01:45:41.558Z,32.41
2023-02-03T01:48:07.869Z,32.39
2023-02-03T01:50:34.211Z,32.45
2023-02-03T01:53:00.608Z,32.43
2023-02-03T01:55:27.034Z,32.43
2023-02-03T01:57:53.380Z,32.46
2023-02-03T02:00:19.760Z,32.45
2023-02-03T02:02:46.149Z,32.52
2023-02-03T02:05:12.430Z,32.46
2023-02-03T02:07:38.783Z,32.52
2023-02-03T02:10:05.129Z,32.53
2023-02-03T02:12:31.463Z,32.56
2023-02-03T02:14:57.811Z,32.57
2023-02-03T02:17:24.139Z,32.59
2023-02-03T02:19:50.485Z,32.67
2023-02-03T02:22:16.847Z,32.68
2023-02-03T02:24:43.185Z,32.65
2023-02-03T02:27:09.535Z,32.68
2023-02-03T02:29:35.879Z,32.70
2023-02-03T02:32:02.361Z,32.71
2023-02-03T02:34:28.601Z,32.71
2023-02-03T02:36:54.941Z,32.69
2023-02-03T02:39:21.287Z,32.68
2023-02-03T02:41:47.635Z,32.75
2023-02-03T02:44:13.984Z,32.82
2023-02-03T02:46:40.379Z,32.79
2023-02-03T02:49:06.677Z,32.75
2023-02-03T02:51:33.014Z,32.82
2023-02-03T02:53:59.362Z,32.83
2023-02-03T02:56:25.688Z,32.84
2023-02-03T02:58:52.039Z,32.88
2023-02-03T03:01:18.398Z,32.91
2023-02-03T03:03:44.715Z,32.85
2023-02-03T03:06:11.097Z,32.79
2023-02-03T03:08:37.441Z,32.52
2023-02-03T03:11:03.798Z,32.34
2023-02-03T03:13:30.181Z,32.15
2023-02-03T03:15:56.548Z,32.00
2023-02-03T03:18:22.888Z,31.75
2023-02-03T03:20:49.230Z,31.67
2023-02-03T03:23:15.565Z,31.53
2023-02-03T03:25:41.903Z,31.28
2023-02-03T03:28:08.292Z,31.09
2023-02-03T03:30:34.671Z,30.98
2023-02-03T03:33:01.909Z,30.86
2023-02-03T03:35:27.341Z,30.71
2023-02-03T03:37:53.682Z,30.53
2023-02-03T03:40:20.022Z,30.33
2023-02-03T03:42:46.360Z,30.25
2023-02-03T03:45:12.699Z,30.17
2023-02-03T03:47:39.066Z,30.01
2023-02-03T03:50:05.393Z,29.89
2023-02-03T03:52:31.753Z,29.78
2023-02-03T03:54:58.107Z,29.66
2023-02-03T03:57:24.440Z,29.59
2023-02-03T03:59:50.773Z,29.73
2023-02-03T04:02:17.163Z,29.69
2023-02-03T04:04:43.499Z,29.65
2023-02-03T04:07:09.849Z,29.50
2023-02-03T04:09:36.191Z,29.45
2023-02-03T04:12:02.570Z,29.51
2023-02-03T04:14:28.912Z,29.47
2023-02-03T04:16:55.258Z,29.49
2023-02-03T04:19:21.607Z,29.38
2023-02-03T04:21:47.986Z,29.28
2023-02-03T04:24:14.327Z,29.16
2023-02-03T04:26:40.677Z,29.16
2023-02-03T04:29:07.010Z,29.05
2023-02-03T04:31:33.406Z,29.05
2023-02-03T04:33:59.712Z,28.99
2023-02-03T04:36:26.047Z,28.97
2023-02-03T04:38:52.385Z,28.87
2023-02-03T04:41:18.743Z,28.82
2023-02-03T04:43:45.083Z,28.64
2023-02-03T04:46:11.498Z,28.63
2023-02-03T04:48:37.779Z,28.54
2023-02-03T04:51:04.115Z,28.49
2023-02-03T04:53:30.453Z,28.37
2023-02-03T04:55:56.794Z,28.23
2023-02-03T04:58:23.204Z,28.21
2023-02-03T05:00:49.564Z,28.12
2023-02-03T05:03:16.015Z,28.05
2023-02-03T05:05:42.297Z,27.99
2023-02-03T05:08:08.670Z,27.83
2023-02-03T05:10:35.007Z,27.79
2023-02-03T05:13:01.376Z,27.67
2023-02-03T05:15:27.728Z,27.57
2023-02-03T05:17:54.077Z,27.47
2023-02-03T05:20:20.410Z,27.44
2023-02-03T05:22:46.752Z,27.21
2023-02-03T05:25:14.125Z,27.17
2023-02-03T05:27:40.515Z,27.13
2023-02-03T05:30:06.825Z,26.91
2023-02-03T05:32:33.156Z,27.41
2023-02-03T05:34:59.611Z,27.05
2023-02-03T05:37:25.898Z,27.07
2023-02-03T05:39:52.245Z,27.33
2023-02-03T05:42:19.790Z,27.39
2023-02-03T05:44:46.159Z,27.21
2023-02-03T05:47:11.273Z,27.37
2023-02-03T05:49:37.631Z,27.61
2023-02-03T05:52:03.964Z,27.80
2023-02-03T05:54:30.329Z,27.94
2023-02-03T05:56:56.676Z,27.87
2023-02-03T05:59:23.019Z,27.71
2023-02-03T06:01:49.363Z,27.39
2023-02-03T06:04:15.748Z,27.54
2023-02-03T06:06:42.046Z,27.31
2023-02-03T06:09:08.404Z,27.08
2023-02-03T06:11:34.762Z,26.99
2023-02-03T06:14:01.101Z,26.97
2023-02-03T06:16:27.490Z,27.16
2023-02-03T06:18:53.797Z,27.26
2023-02-03T06:21:20.171Z,27.13
2023-02-03T06:23:46.539Z,26.93
2023-02-03T06:26:12.881Z,27.09
2023-02-03T06:28:39.222Z,27.22
2023-02-03T06:31:05.699Z,27.09
2023-02-03T06:33:31.980Z,27.08
2023-02-03T06:35:58.315Z,27.25
2023-02-03T06:38:24.660Z,27.46
2023-02-03T06:40:51.042Z,27.57
2023-02-03T06:43:17.379Z,27.40
2023-02-03T06:45:43.885Z,27.44
2023-02-03T06:48:10.146Z,27.32
2023-02-03T06:50:36.485Z,27.64
2023-02-03T06:53:02.827Z,27.71
2023-02-03T06:55:29.195Z,28.18
2023-02-03T06:57:55.564Z,28.11
2023-02-03T07:00:21.918Z,28.49
2023-02-03T07:02:48.402Z,27.96
2023-02-03T07:05:14.685Z,27.90
2023-02-03T07:07:41.030Z,27.91
2023-02-03T07:10:07.413Z,28.28
2023-02-03T07:12:33.780Z,28.39
2023-02-03T07:15:01.079Z,28.30
2023-02-03T07:17:26.500Z,28.22
2023-02-03T07:19:52.861Z,28.46
2023-02-03T07:22:19.210Z,28.64
2023-02-03T07:24:45.553Z,28.66
2023-02-03T07:27:11.916Z,28.76
2023-02-03T07:29:38.259Z,28.99
2023-02-03T07:32:04.729Z,28.98
2023-02-03T07:34:30.981Z,28.99
2023-02-03T07:36:57.332Z,28.95
2023-02-03T07:39:23.686Z,28.60
2023-02-03T07:41:50.036Z,28.98
2023-02-03T07:44:16.386Z,28.82
2023-02-03T07:46:42.832Z,28.93
2023-02-03T07:49:09.111Z,28.91
2023-02-03T07:51:35.469Z,29.13
2023-02-03T07:54:01.855Z,28.84
2023-02-03T07:56:28.188Z,28.82
2023-02-03T07:58:54.535Z,28.95
2023-02-03T08:01:20.935Z,29.12
2023-02-03T08:03:47.260Z,29.28
2023-02-03T08:06:13.630Z,29.16
2023-02-03T08:08:39.983Z,29.08
2023-02-03T08:11:06.331Z,28.98
2023-02-03T08:13:32.679Z,29.02
2023-02-03T08:15:59.132Z,29.10
2023-02-03T08:18:25.421Z,29.22
2023-02-03T08:20:51.768Z,29.33
2023-02-03T08:23:18.118Z,29.38
2023-02-03T08:25:44.531Z,29.48
2023-02-03T08:28:10.892Z,29.21
2023-02-03T08:30:37.199Z,29.19
2023-02-03T08:33:03.597Z,29.33
2023-02-03T08:35:29.981Z,29.31
2023-02-03T08:37:56.325Z,29.27
2023-02-03T08:40:22.689Z,29.13
2023-02-03T08:42:49.078Z,28.88
2023-02-03T08:45:15.452Z,29.13
2023-02-03T08:47:41.843Z,29.24
2023-02-03T08:50:08.234Z,28.98
2023-02-03T08:52:34.618Z,29.03
2023-02-03T08:55:00.973Z,28.98
2023-02-03T08:57:27.335Z,28.93
2023-02-03T08:59:54.684Z,28.87
2023-02-03T09:02:20.097Z,28.96
2023-02-03T09:04:46.519Z,29.11
2023-02-03T09:07:12.897Z,29.07
2023-02-03T09:09:39.253Z,29.19
2023-02-03T09:12:05.625Z,28.73
2023-02-03T09:14:31.968Z,28.70
2023-02-03T09:16:58.432Z,28.55
2023-02-03T09:19:24.706Z,28.41
2023-02-03T09:21:51.114Z,28.60
2023-02-03T09:24:17.433Z,28.68
2023-02-03T09:26:43.824Z,28.81
2023-02-03T09:29:10.170Z,29.06
2023-02-03T09:31:36.645Z,29.06
2023-02-03T09:34:02.984Z,29.17
2023-02-03T09:36:29.412Z,29.14
2023-02-03T09:38:55.740Z,28.90
2023-02-03T09:41:22.162Z,28.84
2023-02-03T09:43:48.614Z,28.65
2023-02-03T09:46:15.166Z,28.82
2023-02-03T09:48:41.476Z,28.50
2023-02-03T09:51:07.872Z,28.47
2023-02-03T09:53:34.211Z,29.41
2023-02-03T09:56:00.603Z,28.11
2023-02-03T09:58:26.989Z,27.79
2023-02-03T10:00:53.405Z,27.32
2023-02-03T10:03:19.709Z,27.83
2023-02-03T10:05:46.090Z,26.86
2023-02-03T10:08:12.496Z,26.69
2023-02-03T10:10:38.937Z,26.81
2023-02-03T10:13:06.483Z,26.69
2023-02-03T10:15:31.640Z,26.82
2023-02-03T10:17:57.979Z,27.70
2023-02-03T10:20:24.361Z,27.94
2023-02-03T10:22:50.735Z,27.25
2023-02-03T10:25:17.095Z,27.42
2023-02-03T10:27:44.069Z,27.56
2023-02-03T10:30:10.355Z,27.47
2023-02-03T10:32:36.711Z,27.26
2023-02-03T10:35:03.105Z,27.22
2023-02-03T10:37:30.477Z,27.47
2023-02-03T10:39:55.852Z,27.53
2023-02-03T10:42:22.210Z,27.18
2023-02-03T10:44:48.600Z,27.64
2023-02-03T10:47:14.970Z,27.38
2023-02-03T10:49:43.405Z,27.32
2023-02-03T10:52:07.706Z,27.23
2023-02-03T10:54:34.100Z,27.41
2023-02-03T10:57:00.431Z,27.43
2023-02-03T10:59:26.827Z,27.40
2023-02-03T11:01:53.218Z,27.33
2023-02-03T11:04:19.562Z,27.25
2023-02-03T11:06:45.902Z,27.41
2023-02-03T11:09:12.311Z,27.63
2023-02-03T11:11:38.679Z,27.50
2023-02-03T11:14:05.098Z,27.64
2023-02-03T11:16:31.448Z,27.70
2023-02-03T11:18:57.834Z,27.79
2023-02-03T11:21:24.219Z,27.79
2023-02-03T11:23:50.605Z,27.57
2023-02-03T11:26:16.966Z,27.28
2023-02-03T11:28:43.337Z,27.51
2023-02-03T11:31:09.783Z,27.51
2023-02-03T11:33:36.085Z,27.71
2023-02-03T11:36:02.475Z,27.84
2023-02-03T11:38:28.829Z,27.96
2023-02-03T11:40:55.395Z,28.04
2023-02-03T11:43:21.788Z,28.14
2023-02-03T11:45:48.140Z,28.22
2023-02-03T11:48:14.528Z,28.43
2023-02-03T11:50:40.879Z,28.25
2023-02-03T11:53:07.275Z,28.27
2023-02-03T11:55:33.635Z,28.28
2023-02-03T11:58:02.628Z,28.37
2023-02-03T12:00:29.279Z,28.42
2023-02-03T12:02:55.529Z,28.53
2023-02-03T12:05:21.757Z,28.57
2023-02-03T12:07:48.143Z,28.47
2023-02-03T12:10:14.537Z,28.11
2023-02-03T12:12:40.919Z,28.13
2023-02-03T12:15:07.268Z,28.05
2023-02-03T12:17:33.657Z,28.19
2023-02-03T12:20:00.023Z,28.27
2023-02-03T12:22:26.466Z,28.34
2023-02-03T12:24:52.838Z,28.34
2023-02-03T12:27:19.247Z,28.44
2023-02-03T12:29:45.579Z,28.44
2023-02-03T12:32:12.025Z,28.54
2023-02-03T12:34:38.325Z,28.60
2023-02-03T12:37:04.729Z,28.63
2023-02-03T12:39:32.707Z,28.64
2023-02-03T12:41:57.462Z,28.65
2023-02-03T12:44:23.854Z,28.34
2023-02-03T12:46:50.245Z,28.50
2023-02-03T12:49:16.603Z,28.53
2023-02-03T12:51:42.994Z,28.15
2023-02-03T12:54:09.370Z,27.88
2023-02-03T12:56:35.766Z,27.59
2023-02-03T12:59:02.158Z,27.51
2023-02-03T13:01:28.602Z,27.57
2023-02-03T13:03:54.846Z,27.80
2023-02-03T13:06:21.247Z,28.20
2023-02-03T13:08:47.581Z,28.39
2023-02-03T13:11:15.448Z,28.63
2023-02-03T13:13:40.337Z,28.85
2023-02-03T13:16:06.819Z,28.98
2023-02-03T13:18:33.167Z,28.69
2023-02-03T13:20:59.564Z,28.79
2023-02-03T13:23:28.428Z,28.78
2023-02-03T13:25:54.824Z,28.76
2023-02-03T13:28:21.208Z,28.42
2023-02-03T13:30:47.566Z,28.24
2023-02-03T13:33:13.908Z,28.18
2023-02-03T13:35:41.723Z,28.23
2023-02-03T13:38:06.644Z,28.38
2023-02-03T13:40:33.036Z,28.40
2023-02-03T13:42:59.434Z,28.50
2023-02-03T13:45:25.855Z,28.33
2023-02-03T13:47:52.210Z,28.21
2023-02-03T13:50:18.665Z,28.27
2023-02-03T13:52:45.057Z,28.40
2023-02-03T13:55:11.479Z,28.47
2023-02-03T13:57:37.832Z,28.53
2023-02-03T14:00:04.339Z,28.60
2023-02-03T14:02:30.799Z,28.65
2023-02-03T14:04:57.202Z,28.67
2023-02-03T14:07:23.508Z,28.43
2023-02-03T14:09:49.880Z,28.55
2023-02-03T14:12:16.239Z,28.15
2023-02-03T14:14:42.628Z,28.01
2023-02-03T14:17:09.069Z,27.82
2023-02-03T14:19:36.082Z,27.69
2023-02-03T14:22:02.480Z,27.79
2023-02-03T14:24:28.803Z,28.08
2023-02-03T14:26:57.294Z,27.83
2023-02-03T14:29:22.764Z,27.79
2023-02-03T14:31:49.204Z,27.89
2023-02-03T14:34:14.297Z,28.24
2023-02-03T14:36:40.635Z,28.38
2023-02-03T14:39:07.035Z,28.50
2023-02-03T14:41:33.378Z,28.73
2023-02-03T14:43:59.818Z,28.85
2023-02-03T14:46:26.133Z,28.91
2023-02-03T14:48:52.512Z,28.57
2023-02-03T14:51:18.899Z,28.38
2023-02-03T14:53:45.293Z,28.48
2023-02-03T14:56:11.609Z,28.34
2023-02-03T14:58:38.012Z,28.17
2023-02-03T15:01:04.493Z,28.15
2023-02-03T15:03:30.816Z,28.36
2023-02-03T15:05:57.144Z,28.56
2023-02-03T15:08:23.536Z,28.63
2023-02-03T15:10:51.077Z,28.40
2023-02-03T15:13:16.255Z,28.08
2023-02-03T15:15:42.609Z,28.05
2023-02-03T15:18:08.983Z,28.04
2023-02-03T15:20:35.338Z,28.21
2023-02-03T15:23:01.731Z,28.17
2023-02-03T15:25:28.378Z,28.06
2023-02-03T15:27:54.537Z,28.09
2023-02-03T15:30:20.844Z,27.84
2023-02-03T15:32:47.236Z,27.66
2023-02-03T15:35:13.571Z,27.54
2023-02-03T15:37:39.996Z,27.62
2023-02-03T15:40:06.491Z,27.70
2023-02-03T15:42:32.740Z,27.92
2023-02-03T15:44:59.118Z,28.04
2023-02-03T15:47:25.495Z,28.08
2023-02-03T15:49:51.887Z,28.21
2023-02-03T15:52:18.274Z,28.39
2023-02-03T15:54:44.655Z,28.37
2023-02-03T15:57:11.052Z,28.37
2023-02-03T15:59:37.404Z,28.53
2023-02-03T16:02:03.936Z,28.54
2023-02-03T16:04:30.142Z,28.21
2023-02-03T16:06:56.530Z,27.95
2023-02-03T16:09:22.872Z,28.01
2023-02-03T16:11:49.286Z,28.01
2023-02-03T16:14:15.625Z,28.17
2023-02-03T16:16:58.800Z,28.28
2023-02-03T16:19:11.403Z,28.15
2023-02-03T16:21:37.791Z,28.03
2023-02-03T16:24:04.137Z,27.78
2023-02-03T16:26:30.624Z,27.62
2023-02-03T16:28:56.996Z,27.43
2023-02-03T16:31:23.428Z,27.65
2023-02-03T16:33:49.714Z,27.74
2023-02-03T16:36:16.181Z,27.95
2023-02-03T16:38:42.518Z,28.05
2023-02-03T16:41:08.909Z,28.19
2023-02-03T16:43:35.257Z,28.29
2023-02-03T16:46:01.746Z,28.33
2023-02-03T16:48:27.992Z,28.31
2023-02-03T16:50:54.368Z,28.38
2023-02-03T16:53:20.720Z,27.86
2023-02-03T16:55:47.146Z,27.62
2023-02-03T16:58:13.476Z,27.69
2023-02-03T17:00:39.890Z,27.87
2023-02-03T17:03:06.199Z,27.92
2023-02-03T17:05:32.892Z,27.88
2023-02-03T17:08:00.143Z,27.47
2023-02-03T17:10:26.282Z,27.47
2023-02-03T17:12:51.697Z,27.59
2023-02-03T17:15:18.082Z,27.81
2023-02-03T17:17:44.431Z,27.94
2023-02-03T17:20:10.788Z,27.94
2023-02-03T17:22:37.286Z,27.92
2023-02-03T17:25:03.627Z,27.56
2023-02-03T17:27:30.015Z,27.38
2023-02-03T17:29:56.348Z,27.54
2023-02-03T17:32:22.743Z,27.62
2023-02-03T17:34:49.092Z,27.82
2023-02-03T17:37:15.474Z,27.92
2023-02-03T17:53:22.796Z,27.13
2023-02-03T17:55:49.155Z,27.31
2023-02-03T17:58:15.511Z,27.51
2023-02-03T18:00:41.856Z,27.72
2023-02-03T18:03:08.249Z,27.43
2023-02-03T18:05:35.789Z,27.18
2023-02-03T18:08:06.023Z,27.21
2023-02-03T18:10:27.464Z,27.29
2023-02-03T18:12:53.736Z,27.65
2023-02-03T18:15:20.112Z,27.83
2023-02-03T18:17:46.499Z,27.89
2023-02-03T18:20:12.831Z,27.68
2023-02-03T18:22:39.212Z,27.46
2023-02-03T18:25:05.558Z,27.18
2023-02-03T18:27:31.956Z,27.06
2023-02-03T18:29:58.284Z,26.86
2023-02-03T18:32:24.661Z,26.78
2023-02-03T18:34:51.006Z,26.75
2023-02-03T18:37:17.390Z,27.17
2023-02-03T18:39:43.732Z,27.57
2023-02-03T18:42:10.189Z,27.77
2023-02-03T18:44:36.541Z,27.95
2023-02-03T18:47:02.932Z,28.07
2023-02-03T18:49:29.274Z,27.62
2023-02-03T18:51:55.665Z,27.36
2023-02-03T18:54:22.000Z,27.20
2023-02-03T18:56:48.398Z,27.05
2023-02-03T18:59:14.746Z,26.88
2023-02-03T19:01:41.198Z,26.85
2023-02-03T19:04:07.466Z,26.97
2023-02-03T19:06:33.920Z,26.99
2023-02-03T19:09:00.262Z,27.07
2023-02-03T19:11:26.663Z,27.25
2023-02-03T19:13:53.005Z,27.37
2023-02-03T19:16:19.583Z,27.40
2023-02-03T19:18:45.876Z,27.52
2023-02-03T19:21:12.270Z,27.57
2023-02-03T19:23:38.653Z,27.63
2023-02-03T19:26:05.038Z,27.73
2023-02-03T19:28:33.087Z,27.77
2023-02-03T19:31:06.977Z,27.89
2023-02-03T19:33:24.107Z,27.93
2023-02-03T19:35:50.491Z,27.93
2023-02-03T19:38:16.883Z,28.02
2023-02-03T19:40:43.263Z,28.09
2023-02-03T19:43:09.605Z,28.21
2023-02-03T19:45:36.028Z,28.34
2023-02-03T19:48:02.371Z,28.34
2023-02-03T19:50:29.127Z,28.40
2023-02-03T19:52:55.192Z,28.44
2023-02-03T19:55:21.566Z,28.44
2023-02-03T19:57:47.916Z,28.42
2023-02-03T20:00:14.294Z,28.54
2023-02-03T20:02:40.646Z,28.66
2023-02-03T20:05:07.060Z,28.73
2023-02-03T20:07:33.370Z,28.85
2023-02-03T20:09:59.773Z,28.92
2023-02-03T20:12:26.111Z,28.94
2023-02-03T20:14:52.496Z,29.03
2023-02-03T20:17:18.845Z,29.10
2023-02-03T20:19:45.241Z,29.08
2023-02-03T20:22:11.581Z,29.21
2023-02-03T20:24:37.967Z,29.23
2023-02-03T20:27:04.312Z,29.30
2023-02-03T20:29:30.727Z,29.32
2023-02-03T20:31:57.139Z,29.40
2023-02-03T20:34:23.464Z,29.46
2023-02-03T20:36:49.808Z,29.48
2023-02-03T20:39:16.202Z,29.51
2023-02-03T20:41:42.547Z,29.60
2023-02-03T20:44:08.940Z,29.66
2023-02-03T20:46:35.305Z,29.74
2023-02-03T20:49:01.663Z,29.78
2023-02-03T20:51:28.011Z,29.83
2023-02-03T20:53:54.398Z,29.91
2023-02-03T20:56:20.745Z,29.92
2023-02-03T20:58:47.138Z,30.01
2023-02-03T21:01:13.509Z,30.14
2023-02-03T21:03:39.862Z,30.16
2023-02-03T21:06:06.241Z,30.17
2023-02-03T21:08:32.633Z,30.25
2023-02-03T21:10:59.011Z,30.32
2023-02-03T21:13:25.396Z,30.40
2023-02-03T21:15:51.742Z,30.43
2023-02-03T21:18:18.132Z,30.50
2023-02-03T21:20:44.476Z,30.52
2023-02-03T21:23:10.866Z,30.59
2023-02-03T21:25:37.197Z,30.59
2023-02-03T21:28:03.684Z,30.61
2023-02-03T21:30:30.339Z,30.68
2023-02-03T21:32:56.328Z,30.78
2023-02-03T21:35:24.059Z,30.77
2023-02-03T21:37:49.088Z,30.78
2023-02-03T21:40:15.426Z,30.81
2023-02-03T21:42:41.853Z,30.82
2023-02-03T21:45:08.152Z,30.79
2023-02-03T21:47:34.544Z,30.80
2023-02-03T21:50:00.886Z,30.90
2023-02-03T21:52:27.302Z,30.89
2023-02-03T21:54:53.666Z,30.92
2023-02-03T21:57:20.034Z,30.97
2023-02-03T21:59:46.383Z,30.94
2023-02-03T22:02:12.772Z,30.92
2023-02-03T22:04:39.106Z,31.01
2023-02-03T22:07:05.508Z,30.99
2023-02-03T22:09:31.861Z,31.04
2023-02-03T22:11:59.215Z,31.04
2023-02-03T22:14:24.620Z,31.03
2023-02-03T22:16:51.038Z,31.11
2023-02-03T22:19:17.396Z,31.09
2023-02-03T22:21:43.748Z,31.13
2023-02-03T22:24:10.121Z,31.10
2023-02-03T22:26:36.613Z,31.06
2023-02-03T22:29:02.943Z,31.14
2023-02-03T22:31:29.435Z,31.19
2023-02-03T22:33:55.680Z,31.20
2023-02-03T22:36:22.060Z,31.23
2023-02-03T22:38:48.400Z,31.30
2023-02-03T22:41:14.792Z,31.27
2023-02-03T22:43:41.146Z,31.29
2023-02-03T22:46:07.541Z,31.34
2023-02-03T22:48:34.941Z,31.38
2023-02-03T22:51:00.238Z,31.37
2023-02-03T22:53:26.578Z,31.43
2023-02-03T22:55:52.994Z,31.38
2023-02-03T22:58:19.335Z,31.43
2023-02-03T23:00:45.729Z,31.43
2023-02-03T23:03:12.097Z,31.51
2023-02-03T23:05:38.464Z,31.45
2023-02-03T23:08:04.807Z,31.51
2023-02-03T23:10:31.728Z,31.56
2023-02-03T23:12:57.540Z,31.57
2023-02-03T23:15:23.919Z,31.62
2023-02-03T23:17:50.256Z,31.66
2023-02-03T23:20:16.679Z,31.63
2023-02-03T23:22:42.985Z,31.66
2023-02-03T23:25:09.378Z,31.68
2023-02-03T23:27:35.710Z,31.74
2023-02-03T23:30:02.104Z,31.73
2023-02-03T23:32:28.486Z,31.78
2023-02-03T23:34:54.890Z,31.78
2023-02-03T23:37:21.219Z,31.82
2023-02-03T23:39:47.618Z,31.83
2023-02-03T23:42:13.987Z,31.88
2023-02-03T23:44:40.372Z,31.91
2023-02-03T23:47:06.743Z,31.96
2023-02-03T23:49:33.142Z,32.01
2023-02-03T23:51:59.492Z,32.04
2023-02-03T23:54:25.866Z,32.03
2023-02-03T23:56:52.202Z,32.05
2023-02-03T23:59:18.584Z,32.07
